Latest Coastal Weather Observations for Mornington Island Airport

IDQ60701

Issued at 1:45 pm EST Saturday 25 October 2014 (issued every 10 minutes, with the page automatically refreshed every 10 minutes)

About coastal observations | Map of coastal stations | Coastal observations for QLD | Marine services | Other Formats
Station Details ID: 029182 Name: MORNINGTON ISLAND AIRPORT Lat: -16.66 Lon: 139.17 Height: 9.0 m
Data from the previous 72 hours. | See also: Recent months at Mornington Island Airport
Date/Time
EST
Temp

°C
Wind Pressure Rain
since 9am
mm
Weather Cloud Vis
km
Sea
Height
m
Swell
Dir
 
Speed
knots
Gust
knots
hPa Trend Height
m
Period
s
Dir
25/01:30pm 31.3 NNW 10 12 1015.0 - 0.0 - - - - - - -
25/01:00pm 32.0 S 7 11 1015.4 - 0.0 - - - - - - -
25/12:30pm 32.1 SSE 6 11 1016.0 - 0.0 - - - - - - -
25/12:00pm 31.5 ESE 7 13 1016.5 - 0.0 - - - - - - -
25/11:30am 32.5 SE 10 15 1017.0 - 0.0 - - - - - - -
25/11:00am 30.9 ESE 11 17 1017.2 - 0.0 - - - - - - -
25/10:30am 31.5 E 15 18 1017.4 - 0.0 - - - - - - -
25/10:00am 30.4 ENE 9 14 1017.6 - 0.0 - - - - - - -
25/09:30am 29.6 ENE 11 15 1017.8 - 0.0 - - - - - - -
25/09:00am 29.1 NE 11 15 1017.6 - 0.0 - - - - - - -
25/08:30am 28.1 ENE 13 19 1017.5 - 0.0 - - - - - - -
25/08:00am 27.4 NE 8 12 1017.3 - 0.0 - - - - - - -
25/07:30am 25.4 E 5 6 1017.0 - 0.0 - - - - - - -
25/07:00am 24.0 ESE 6 7 1016.7 - 0.0 - - - - - - -
25/06:30am 22.3 ESE 4 5 1015.9 - 0.0 - - - - - - -
25/06:00am 22.7 E 6 7 1015.5 - 0.0 - - - - - - -
25/05:30am 23.0 ENE 7 9 1015.1 - 0.0 - - - - - - -
25/05:00am 21.9 NE 7 10 1014.8 - 0.0 - - - - - - -
25/04:30am 23.4 ESE 6 8 1014.2 - 0.0 - - - - - - -
25/04:00am 24.2 SW 4 7 1012.8 - 0.0 - - - - - - -
25/03:30am 24.5 SSW 4 6 1012.6 - 0.0 - - - - - - -
25/03:00am 25.4 SSW 6 10 1012.7 - 0.0 - - - - - - -
25/02:30am 25.6 SW 5 8 1013.0 - 0.0 - - - - - - -
25/02:00am 25.9 SW 6 8 1013.1 - 0.0 - - - - - - -
25/01:30am 25.9 WSW 6 9 1013.3 - 0.0 - - - - - - -
25/01:00am 25.8 SW 6 11 1013.6 - 0.0 - - - - - - -
25/12:30am 25.9 WSW 6 8 1013.9 - 0.0 - - - - - - -
25/12:00am 25.8 W 6 8 1014.2 - 0.0 - - - - - - -
 
Date/Time
EST
Temp

°C
Wind Pressure Rain
since 9am
mm
Weather Cloud Vis
km
Sea
Height
m
Swell
Dir
 
Speed
knots
Gust
knots
hPa Trend Height
m
Period
s
Dir
24/11:30pm 25.7 W 6 7 1014.4 - 0.0 - - - - - - -
24/11:00pm 25.8 W 6 8 1014.6 - 0.0 - - - - - - -
24/10:30pm 26.0 W 7 8 1014.6 - 0.0 - - - - - - -
24/10:00pm 26.0 W 7 8 1014.5 - 0.0 - - - - - - -
24/09:30pm 25.8 NW 6 7 1014.2 - 0.0 - - - - - - -
24/09:00pm 25.8 NW 6 7 1013.9 - 0.0 - - - - - - -
24/08:30pm 25.9 NW 7 9 1013.8 - 0.0 - - - - - - -
24/08:00pm 26.1 NNW 7 9 1013.6 - 0.0 - - - - - - -
24/07:30pm 26.1 NW 8 9 1013.4 - 0.0 - - - - - - -
24/07:00pm 26.1 NW 6 8 1013.4 - 0.0 - - - - - - -
24/06:30pm 26.6 NNW 8 9 1013.3 - 0.0 - - - - - - -
24/06:00pm 27.4 NW 8 10 1013.3 - 0.0 - - - - - - -
24/05:30pm 27.9 NW 8 11 1013.2 - 0.0 - - - - - - -
24/05:00pm 28.3 NNW 9 10 1013.4 - 0.0 - - - - - - -
24/04:30pm 28.7 WNW 10 13 1013.5 - 0.0 - - - - - - -
24/04:00pm 29.1 N 9 11 1013.4 - 0.0 - - - - - - -
24/03:30pm 30.1 N 11 16 1013.4 - 0.0 - - - - - - -
24/03:00pm 29.5 N 9 15 1013.7 - 0.0 - - - - - - -
24/02:30pm 30.7 N 12 16 1013.8 - 0.0 - - - - - - -
24/02:00pm 29.1 N 13 18 1014.2 - 0.0 - - - - - - -
24/01:30pm 29.9 N 13 19 1014.6 - 0.0 - - - - - - -
24/01:00pm 30.2 N 15 20 1015.1 - 0.0 - - - - - - -
24/12:30pm 29.9 N 14 19 1015.5 - 0.0 - - - - - - -
24/12:00pm 30.4 N 15 20 1016.0 - 0.0 - - - - - - -
24/11:30am 29.8 N 12 15 1016.6 - 0.0 - - - - - - -
24/11:00am 30.4 NNE 10 12 1016.9 - 0.0 - - - - - - -
24/10:30am 30.2 N 10 13 1017.1 - 0.0 - - - - - - -
24/10:00am 29.3 ENE 11 13 1017.4 - 0.0 - - - - - - -
24/09:30am 29.0 NE 13 16 1017.4 - 0.0 - - - - - - -
24/09:00am 28.5 NE 10 14 1017.3 - 0.0 - - - - - - -
24/08:30am 27.4 NE 11 16 1017.3 - 0.0 - - - - - - -
24/08:00am 27.4 NE 11 17 1017.0 - 0.0 - - - - - - -
24/07:30am 26.2 ENE 9 13 1016.7 - 0.0 - - - - - - -
24/07:00am 24.6 ENE 8 10 1016.1 - 0.0 - - - - - - -
24/06:30am 23.1 E 7 8 1015.6 - 0.0 - - - - - - -
24/06:00am 23.0 ENE 7 9 1015.1 - 0.0 - - - - - - -
24/05:30am 22.8 ENE 6 8 1014.7 - 0.0 - - - - - - -
24/05:00am 23.3 ENE 7 9 1014.3 - 0.0 - - - - - - -
24/04:30am 25.0 SW 5 7 1013.1 - 0.0 - - - - - - -
24/04:00am 25.1 SW 5 8 1012.6 - 0.0 - - - - - - -
24/03:30am 25.2 WSW 5 8 1012.5 - 0.0 - - - - - - -
24/03:00am 25.3 SW 5 8 1012.6 - 0.0 - - - - - - -
24/02:30am 25.9 W 6 9 1012.9 - 0.0 - - - - - - -
24/02:00am 26.0 WSW 5 7 1013.0 - 0.0 - - - - - - -
24/01:30am 25.8 WSW 5 6 1013.2 - 0.0 - - - - - - -
24/01:00am 26.0 WSW 5 7 1013.4 - 0.0 - - - - - - -
24/12:30am 25.9 WSW 5 7 1013.8 - 0.0 - - - - - - -
24/12:00am 26.0 W 6 8 1014.0 - 0.0 - - - - - - -
 
Date/Time
EST
Temp

°C
Wind Pressure Rain
since 9am
mm
Weather Cloud Vis
km
Sea
Height
m
Swell
Dir
 
Speed
knots
Gust
knots
hPa Trend Height
m
Period
s
Dir
23/11:30pm 25.8 WNW 6 8 1014.1 - 0.0 - - - - - - -
23/11:00pm 25.8 WNW 5 6 1014.3 - 0.0 - - - - - - -
23/10:30pm 26.1 NW 6 7 1014.5 - 0.0 - - - - - - -
23/10:00pm 25.9 NW 6 7 1014.4 - 0.0 - - - - - - -
23/09:30pm 25.8 WNW 6 7 1014.1 - 0.0 - - - - - - -
23/09:00pm 26.0 NW 7 8 1014.0 - 0.0 - - - - - - -
23/08:30pm 26.1 NW 7 9 1013.9 - 0.0 - - - - - - -
23/08:00pm 26.2 NW 7 9 1013.8 - 0.0 - - - - - - -
23/07:30pm 26.3 NW 7 9 1013.5 - 0.0 - - - - - - -
23/07:00pm 26.4 NW 8 9 1013.3 - 0.0 - - - - - - -
23/06:30pm 26.8 NW 7 9 1013.1 - 0.0 - - - - - - -
23/06:00pm 27.5 NW 8 10 1013.0 - 0.0 - - - - - - -
23/05:30pm 28.1 NNW 10 12 1012.9 - 0.0 - - - - - - -
23/05:00pm 28.7 NNW 11 13 1012.8 - 0.0 - - - - - - -
23/04:30pm 29.1 NW 9 13 1012.9 - 0.0 - - - - - - -
23/04:00pm 29.6 NW 10 16 1013.1 - 0.0 - - - - - - -
23/03:30pm 29.4 W 7 10 1013.3 - 0.0 - - - - - - -
23/03:00pm 30.1 WNW 6 11 1013.5 - 0.0 - - - - - - -
23/02:30pm 30.1 N 8 12 1013.5 - 0.0 - - - - - - -
23/02:00pm 30.5 N 10 14 1013.7 - 0.0 - - - - - - -
23/01:30pm 30.6 NNW 12 17 1014.1 - 0.0 - - - - - - -
23/01:00pm 32.3 ESE 9 14 1014.7 - 0.0 - - - - - - -
23/12:30pm 32.2 E 8 12 1015.0 - 0.0 - - - - - - -
23/12:00pm 32.6 ENE 15 18 1015.5 - 0.0 - - - - - - -
23/11:30am 31.9 E 13 21 1015.7 - 0.0 - - - - - - -
23/11:00am 32.0 ENE 9 18 1016.0 - 0.0 - - - - - - -
23/10:30am 32.0 ENE 9 13 1016.4 - 0.0 - - - - - - -
23/10:00am 30.7 E 13 18 1016.5 - 0.0 - - - - - - -
23/09:30am 29.6 NE 13 18 1016.8 - 0.0 - - - - - - -
23/09:00am 28.8 E 12 14 1016.8 - 0.0 - - - - - - -
23/08:30am 29.0 NE 13 18 1016.7 - 0.0 - - - - - - -
23/08:00am 27.6 NE 12 18 1016.1 - 0.0 - - - - - - -
23/07:30am 26.1 ENE 10 15 1015.7 - 0.0 - - - - - - -
23/07:00am 24.6 E 7 9 1015.3 - 0.0 - - - - - - -
23/06:30am 22.7 E 3 4 1015.0 - 0.0 - - - - - - -
23/06:00am 22.7 ENE 4 6 1014.5 - 0.0 - - - - - - -
23/05:30am 23.2 SE 3 4 1014.0 - 0.0 - - - - - - -
23/05:00am 23.7 SSE 4 6 1013.5 - 0.0 - - - - - - -
23/04:30am 25.0 SW 6 8 1012.6 - 0.0 - - - - - - -
23/04:00am 24.4 WSW 5 7 1012.4 - 0.0 - - - - - - -
23/03:30am 23.6 SSW 3 5 1012.8 - 0.0 - - - - - - -
23/03:00am 25.4 WSW 4 6 1012.9 - 0.0 - - - - - - -
23/02:30am 25.5 WSW 5 6 1013.2 - 0.0 - - - - - - -
23/02:00am 25.5 WSW 4 6 1013.6 - 0.0 - - - - - - -
23/01:30am 25.8 W 6 8 1013.7 - 0.0 - - - - - - -
23/01:00am 25.7 W 6 9 1014.1 - 0.0 - - - - - - -
23/12:30am 25.7 W 6 8 1014.3 - 0.0 - - - - - - -
23/12:00am 25.8 W 6 8 1014.5 - 0.0 - - - - - - -
 
Date/Time
EST
Temp

°C
Wind Pressure Rain
since 9am
mm
Weather Cloud Vis
km
Sea
Height
m
Swell
Dir
 
Speed
knots
Gust
knots
hPa Trend Height
m
Period
s
Dir
22/11:30pm 25.9 WNW 7 9 1014.7 - 0.0 - - - - - - -
22/11:00pm 26.0 NW 8 9 1014.7 - 0.0 - - - - - - -
22/10:30pm 26.0 NW 7 9 1014.8 - 0.0 - - - - - - -
22/10:00pm 26.0 NNW 8 11 1014.5 - 0.0 - - - - - - -
22/09:30pm 26.1 NW 9 10 1014.5 - 0.0 - - - - - - -
22/09:00pm 26.1 NW 8 10 1014.3 - 0.0 - - - - - - -
22/08:30pm 26.1 NW 8 9 1014.3 - 0.0 - - - - - - -
22/08:00pm 26.2 NW 8 9 1014.2 - 0.0 - - - - - - -
22/07:30pm 26.1 NNW 8 9 1014.2 - 0.0 - - - - - - -
22/07:00pm 26.2 NNW 7 9 1014.0 - 0.0 - - - - - - -
22/06:30pm 26.6 NNW 8 10 1013.9 - 0.0 - - - - - - -
22/06:00pm 27.4 NNW 10 11 1013.9 - 0.0 - - - - - - -
22/05:30pm 27.9 NW 9 11 1013.9 - 0.0 - - - - - - -
22/05:00pm 28.3 WNW 9 11 1013.8 - 0.0 - - - - - - -
22/04:30pm 28.8 WNW 8 11 1013.8 - 0.0 - - - - - - -
22/04:00pm 28.2 WNW 7 9 1013.9 - 0.0 - - - - - - -
22/03:30pm 29.1 NW 11 13 1013.8 - 0.0 - - - - - - -
22/03:00pm 30.6 NNW 10 12 1013.7 - 0.0 - - - - - - -
22/02:30pm 30.2 N 10 13 1014.0 - 0.0 - - - - - - -
22/02:00pm 29.2 N 11 13 1014.5 - 0.0 - - - - - - -

Other Formats:

Comma delimited format used in spreadsheet applications
http://www.bom.gov.au/fwo/IDQ60701/IDQ60701.94254.axf

JavaScript Object Notation format (JSON) in row-major order
http://www.bom.gov.au/fwo/IDQ60701/IDQ60701.94254.json